To NAV CANADA Home Page Login to a new session Search on AWWS site Feedback and Comments Disclaimer Vers la page française équivalente Tips FAQ What's new on the site To the Forecasts and Observations / NOTAM section To "File a Flight Plan" website Publications and other links Update of the User's profile FIC Telephone Numbers My Weather Data Folder Route Weather Data Regional Weather Data Local Weather Data To the Forecasts and Observations / NOTAM section
Request Generated 05/29/2015 at 09:53:33 UTC . Weather information available at that time is displayed.

METAR/TAF

EUREKA/NU    

METAR CWEU 290900Z 35002KT 6SM -SN FEW010 BKN020 OVC100 M04/M07 A2989 RMK SC1SC5AS2 SLP124=
METAR CWEU 290800Z 35003KT 7SM -SN FEW010 OVC020 M04/M06 A2990 RMK SC1SC6 SLP128=
SPECI CWEU 290723Z 29003KT 6SM -SN FEW015 OVC020 M04/M06 RMK SC2SC6=
METAR CWEU 290700Z 33003KT 1 1/2SM -SN OVC020 M04/M06 A2992 RMK SN2SC6 SLP132=

*** REMARK        : Forecast period has ended; this was the last TAF issued
*** REMARQUE : La période de prévision est échue; ceci était le dernier TAF qui a été émis
TAF CYEU 282338Z 2900/2902 ADVISORY OFFSITE 31012KT 4SM -SN FEW012
OVC020 TEMPO 2900/2902 P6SM NSW BKN030
RMK NXT FCST WILL BE ISSUED AT 291045Z=
Your time UTC time
Weather data provided by Environment Canada and NAV CANADA